sensor_id;sensor_type;location;lat;lon;timestamp;pressure;altitude;pressure_sealevel;temperature;humidity
18569;BME280;14780;48.316;-1.050;2023-07-13T00:02:28;99314.72;;;25.17;45.07
18569;BME280;14780;48.316;-1.050;2023-07-13T00:05:12;99309.78;;;25.19;45.06
18569;BME280;14780;48.316;-1.050;2023-07-13T00:07:57;99320.47;;;25.21;44.92
18569;BME280;14780;48.316;-1.050;2023-07-13T00:10:42;99318.56;;;25.16;44.88
18569;BME280;14780;48.316;-1.050;2023-07-13T00:13:29;99318.56;;;25.16;44.99
18569;BME280;14780;48.316;-1.050;2023-07-13T00:16:15;99318.81;;;25.15;44.88
18569;BME280;14780;48.316;-1.050;2023-07-13T00:18:59;99315.53;;;25.08;45.19
18569;BME280;14780;48.316;-1.050;2023-07-13T00:21:45;99321.28;;;25.11;45.12
18569;BME280;14780;48.316;-1.050;2023-07-13T00:24:30;99313.91;;;25.07;45.13
18569;BME280;14780;48.316;-1.050;2023-07-13T00:27:15;99323.47;;;25.04;45.14
18569;BME280;14780;48.316;-1.050;2023-07-13T00:30:00;99324.59;;;25.03;44.98
18569;BME280;14780;48.316;-1.050;2023-07-13T00:32:44;99325.13;;;25.05;45.07
18569;BME280;14780;48.316;-1.050;2023-07-13T00:35:31;99322.94;;;25.02;45.21
18569;BME280;14780;48.316;-1.050;2023-07-13T00:38:16;99328.97;;;25.09;44.78
18569;BME280;14780;48.316;-1.050;2023-07-13T00:41:02;99326.22;;;25.09;44.94
18569;BME280;14780;48.316;-1.050;2023-07-13T00:43:48;99329.25;;;24.98;45.12
18569;BME280;14780;48.316;-1.050;2023-07-13T00:46:34;99324.88;;;24.97;45.06
18569;BME280;14780;48.316;-1.050;2023-07-13T00:49:21;99332.25;;;24.96;45.01
18569;BME280;14780;48.316;-1.050;2023-07-13T00:52:08;99335.53;;;24.93;44.93
18569;BME280;14780;48.316;-1.050;2023-07-13T00:54:54;99326.25;;;24.94;44.71
18569;BME280;14780;48.316;-1.050;2023-07-13T00:57:39;99324.84;;;24.87;45.06
18569;BME280;14780;48.316;-1.050;2023-07-13T01:00:26;99320.75;;;24.89;44.80
18569;BME280;14780;48.316;-1.050;2023-07-13T01:03:12;99327.88;;;24.90;44.86
18569;BME280;14780;48.316;-1.050;2023-07-13T01:05:57;99316.38;;;24.88;44.76
18569;BME280;14780;48.316;-1.050;2023-07-13T01:08:41;99318.28;;;24.88;44.99
18569;BME280;14780;48.316;-1.050;2023-07-13T01:11:27;99321.00;;;24.88;45.05
18569;BME280;14780;48.316;-1.050;2023-07-13T01:14:12;99315.81;;;24.81;45.00
18569;BME280;14780;48.316;-1.050;2023-07-13T01:16:57;99316.66;;;24.82;45.20
18569;BME280;14780;48.316;-1.050;2023-07-13T01:19:46;99321.03;;;24.83;45.21
18569;BME280;14780;48.316;-1.050;2023-07-13T01:22:30;99324.56;;;24.83;45.13
18569;BME280;14780;48.316;-1.050;2023-07-13T01:25:17;99317.22;;;24.89;44.80
18569;BME280;14780;48.316;-1.050;2023-07-13T01:28:03;99326.78;;;24.86;44.79
18569;BME280;14780;48.316;-1.050;2023-07-13T01:30:48;99315.25;;;24.84;44.83
18569;BME280;14780;48.316;-1.050;2023-07-13T01:33:33;99318.28;;;24.83;44.99
18569;BME280;14780;48.316;-1.050;2023-07-13T01:36:18;99318.28;;;24.78;44.99
18569;BME280;14780;48.316;-1.050;2023-07-13T01:39:06;99325.66;;;24.77;44.94
18569;BME280;14780;48.316;-1.050;2023-07-13T01:41:51;99334.97;;;24.71;45.09
18569;BME280;14780;48.316;-1.050;2023-07-13T01:44:35;99336.06;;;24.75;44.88
18569;BME280;14780;48.316;-1.050;2023-07-13T01:47:20;99334.97;;;24.76;44.74
18569;BME280;14780;48.316;-1.050;2023-07-13T01:50:05;99336.88;;;24.71;44.75
18569;BME280;14780;48.316;-1.050;2023-07-13T01:52:49;99337.97;;;24.70;44.80
18569;BME280;14780;48.316;-1.050;2023-07-13T01:55:34;99343.72;;;24.68;44.77
18569;BME280;14780;48.316;-1.050;2023-07-13T01:58:19;99338.53;;;24.72;44.79
18569;BME280;14780;48.316;-1.050;2023-07-13T02:01:04;99329.75;;;24.60;44.73
18569;BME280;14780;48.316;-1.050;2023-07-13T02:03:48;99336.59;;;24.57;44.79
18569;BME280;14780;48.316;-1.050;2023-07-13T02:06:33;99334.94;;;24.56;44.86
18569;BME280;14780;48.316;-1.050;2023-07-13T02:09:18;99324.00;;;24.61;44.73
18569;BME280;14780;48.316;-1.050;2023-07-13T02:12:03;99331.66;;;24.59;44.84
18569;BME280;14780;48.316;-1.050;2023-07-13T02:14:48;99329.75;;;24.60;45.00
18569;BME280;14780;48.316;-1.050;2023-07-13T02:17:34;99333.84;;;24.62;44.85
18569;BME280;14780;48.316;-1.050;2023-07-13T02:20:19;99328.94;;;24.59;44.81
18569;BME280;14780;48.316;-1.050;2023-07-13T02:23:04;99330.84;;;24.59;44.77
18569;BME280;14780;48.316;-1.050;2023-07-13T02:25:48;99336.56;;;24.52;44.82
18569;BME280;14780;48.316;-1.050;2023-07-13T02:28:33;99327.78;;;24.45;44.90
18569;BME280;14780;48.316;-1.050;2023-07-13T02:31:19;99331.63;;;24.44;44.74
18569;BME280;14780;48.316;-1.050;2023-07-13T02:34:04;99332.13;;;24.41;44.58
18569;BME280;14780;48.316;-1.050;2023-07-13T02:36:48;99322.28;;;24.40;44.68
18569;BME280;14780;48.316;-1.050;2023-07-13T02:39:33;99326.94;;;24.45;44.71
18569;BME280;14780;48.316;-1.050;2023-07-13T02:42:17;99318.44;;;24.31;44.73
18569;BME280;14780;48.316;-1.050;2023-07-13T02:45:02;99311.91;;;24.37;44.62
18569;BME280;14780;48.316;-1.050;2023-07-13T02:47:47;99323.38;;;24.39;44.74
18569;BME280;14780;48.316;-1.050;2023-07-13T02:50:32;99324.47;;;24.33;44.70
18569;BME280;14780;48.316;-1.050;2023-07-13T02:53:17;99319.25;;;24.27;44.86
18569;BME280;14780;48.316;-1.050;2023-07-13T02:56:02;99322.81;;;24.32;44.71
18569;BME280;14780;48.316;-1.050;2023-07-13T02:58:47;99321.16;;;24.26;44.70
18569;BME280;14780;48.316;-1.050;2023-07-13T03:01:31;99325.25;;;24.24;44.83
18569;BME280;14780;48.316;-1.050;2023-07-13T03:04:17;99318.69;;;24.20;44.79
18569;BME280;14780;48.316;-1.050;2023-07-13T03:07:04;99329.34;;;24.26;44.44
18569;BME280;14780;48.316;-1.050;2023-07-13T03:09:49;99326.09;;;24.24;44.72
18569;BME280;14780;48.316;-1.050;2023-07-13T03:12:38;99325.25;;;24.24;44.65
18569;BME280;14780;48.316;-1.050;2023-07-13T03:15:22;99324.41;;;24.18;44.70
18569;BME280;14780;48.316;-1.050;2023-07-13T03:18:07;99327.72;;;24.20;44.64
18569;BME280;14780;48.316;-1.050;2023-07-13T03:20:52;99322.22;;;24.10;44.75
18569;BME280;14780;48.316;-1.050;2023-07-13T03:23:37;99322.75;;;24.12;44.63
18569;BME280;14780;48.316;-1.050;2023-07-13T03:26:22;99322.75;;;24.12;44.85
18569;BME280;14780;48.316;-1.050;2023-07-13T03:29:07;99327.69;;;24.15;44.81
18569;BME280;14780;48.316;-1.050;2023-07-13T03:31:51;99323.00;;;24.06;45.02
18569;BME280;14780;48.316;-1.050;2023-07-13T03:34:36;99323.31;;;24.14;44.99
18569;BME280;14780;48.316;-1.050;2023-07-13T03:37:21;99318.41;;;24.16;44.75
18569;BME280;14780;48.316;-1.050;2023-07-13T03:40:06;99321.09;;;24.11;45.12
18569;BME280;14780;48.316;-1.050;2023-07-13T03:42:53;99326.31;;;24.13;44.87
18569;BME280;14780;48.316;-1.050;2023-07-13T03:45:38;99327.13;;;24.08;45.05
18569;BME280;14780;48.316;-1.050;2023-07-13T03:48:23;99321.09;;;24.11;45.07
18569;BME280;14780;48.316;-1.050;2023-07-13T03:51:08;99324.06;;;24.00;45.16
18569;BME280;14780;48.316;-1.050;2023-07-13T03:53:53;99329.00;;;23.98;45.12
18569;BME280;14780;48.316;-1.050;2023-07-13T03:56:37;99326.28;;;24.03;45.02
18569;BME280;14780;48.316;-1.050;2023-07-13T03:59:22;99328.16;;;23.97;45.34
18569;BME280;14780;48.316;-1.050;2023-07-13T04:02:07;99327.63;;;23.95;44.66
18569;BME280;14780;48.316;-1.050;2023-07-13T04:04:52;99331.97;;;23.91;44.94
18569;BME280;14780;48.316;-1.050;2023-07-13T04:07:38;99341.00;;;23.92;45.22
18569;BME280;14780;48.316;-1.050;2023-07-13T04:10:22;99338.81;;;23.94;45.29
18569;BME280;14780;48.316;-1.050;2023-07-13T04:13:07;99335.72;;;23.80;45.39
18569;BME280;14780;48.316;-1.050;2023-07-13T04:15:52;99344.75;;;23.81;45.26
18569;BME280;14780;48.316;-1.050;2023-07-13T04:18:37;99354.00;;;23.75;45.51
18569;BME280;14780;48.316;-1.050;2023-07-13T04:21:22;99359.47;;;23.75;45.45
18569;BME280;14780;48.316;-1.050;2023-07-13T04:24:06;99357.63;;;23.85;45.47
18569;BME280;14780;48.316;-1.050;2023-07-13T04:26:52;99357.53;;;23.75;45.47
18569;BME280;14780;48.316;-1.050;2023-07-13T04:29:37;99361.91;;;23.76;45.25
18569;BME280;14780;48.316;-1.050;2023-07-13T04:32:21;99363.28;;;23.79;45.09
18569;BME280;14780;48.316;-1.050;2023-07-13T04:35:06;99355.84;;;23.69;45.60
18569;BME280;14780;48.316;-1.050;2023-07-13T04:37:51;99364.13;;;23.79;45.22
18569;BME280;14780;48.316;-1.050;2023-07-13T04:40:36;99369.59;;;23.79;45.48
18569;BME280;14780;48.316;-1.050;2023-07-13T04:43:20;99368.75;;;23.74;45.38
18569;BME280;14780;48.316;-1.050;2023-07-13T04:46:11;99376.06;;;23.68;45.56
18569;BME280;14780;48.316;-1.050;2023-07-13T04:48:56;99376.16;;;23.78;45.60
18569;BME280;14780;48.316;-1.050;2023-07-13T04:51:43;99376.66;;;23.75;45.50
18569;BME280;14780;48.316;-1.050;2023-07-13T04:54:27;99370.69;;;23.78;45.46
18569;BME280;14780;48.316;-1.050;2023-07-13T04:57:12;99372.84;;;23.76;45.60
18569;BME280;14780;48.316;-1.050;2023-07-13T04:59:56;99377.75;;;23.74;45.63
18569;BME280;14780;48.316;-1.050;2023-07-13T05:02:43;99375.84;;;23.75;45.44
18569;BME280;14780;48.316;-1.050;2023-07-13T05:05:28;99375.56;;;23.71;45.57
18569;BME280;14780;48.316;-1.050;2023-07-13T05:08:12;99373.09;;;23.70;46.05
18569;BME280;14780;48.316;-1.050;2023-07-13T05:10:59;99373.88;;;23.65;45.61
18569;BME280;14780;48.316;-1.050;2023-07-13T05:13:43;99378.00;;;23.73;45.61
18569;BME280;14780;48.316;-1.050;2023-07-13T05:16:28;99379.38;;;23.70;45.74
18569;BME280;14780;48.316;-1.050;2023-07-13T05:19:13;99379.91;;;23.67;45.91
18569;BME280;14780;48.316;-1.050;2023-07-13T05:21:58;99392.47;;;23.68;45.65
18569;BME280;14780;48.316;-1.050;2023-07-13T05:24:42;99383.75;;;23.71;45.84
18569;BME280;14780;48.316;-1.050;2023-07-13T05:27:27;99382.63;;;23.67;45.98
18569;BME280;14780;48.316;-1.050;2023-07-13T05:30:11;99385.06;;;23.64;46.21
18569;BME280;14780;48.316;-1.050;2023-07-13T05:32:56;99390.31;;;23.70;46.10
18569;BME280;14780;48.316;-1.050;2023-07-13T05:35:41;99390.03;;;23.67;46.57
18569;BME280;14780;48.316;-1.050;2023-07-13T05:38:25;99389.19;;;23.66;46.27
18569;BME280;14780;48.316;-1.050;2023-07-13T05:41:10;99392.16;;;23.65;46.55
18569;BME280;14780;48.316;-1.050;2023-07-13T05:43:55;99386.41;;;23.61;46.33
18569;BME280;14780;48.316;-1.050;2023-07-13T05:46:40;99390.81;;;23.67;46.55
18569;BME280;14780;48.316;-1.050;2023-07-13T05:49:25;99403.94;;;23.65;46.41
18569;BME280;14780;48.316;-1.050;2023-07-13T05:52:09;99396.53;;;23.66;46.32
18569;BME280;14780;48.316;-1.050;2023-07-13T05:54:54;99413.97;;;23.55;46.83
18569;BME280;14780;48.316;-1.050;2023-07-13T05:57:38;99409.06;;;23.57;47.21
18569;BME280;14780;48.316;-1.050;2023-07-13T06:00:23;99405.53;;;23.56;46.58
18569;BME280;14780;48.316;-1.050;2023-07-13T06:03:09;99415.06;;;23.59;46.79
18569;BME280;14780;48.316;-1.050;2023-07-13T06:05:53;99419.69;;;23.53;47.49
18569;BME280;14780;48.316;-1.050;2023-07-13T06:08:38;99422.41;;;23.53;47.32
18569;BME280;14780;48.316;-1.050;2023-07-13T06:11:25;99427.97;;;23.63;48.27
18569;BME280;14780;48.316;-1.050;2023-07-13T06:14:10;99423.59;;;23.67;48.76
18569;BME280;14780;48.316;-1.050;2023-07-13T06:16:55;99425.34;;;23.78;48.30
18569;BME280;14780;48.316;-1.050;2023-07-13T06:19:39;99437.06;;;23.74;48.04
18569;BME280;14780;48.316;-1.050;2023-07-13T06:22:25;99438.91;;;23.63;48.34
18569;BME280;14780;48.316;-1.050;2023-07-13T06:25:09;99447.28;;;23.57;48.19
18569;BME280;14780;48.316;-1.050;2023-07-13T06:27:54;99448.19;;;23.31;48.46
18569;BME280;14780;48.316;-1.050;2023-07-13T06:30:39;99457.31;;;23.15;48.33
18569;BME280;14780;48.316;-1.050;2023-07-13T06:33:25;99446.56;;;23.09;48.45
18569;BME280;14780;48.316;-1.050;2023-07-13T06:36:10;99458.13;;;23.16;48.43
18569;BME280;14780;48.316;-1.050;2023-07-13T06:38:55;99457.50;;;23.09;48.44
18569;BME280;14780;48.316;-1.050;2023-07-13T06:41:39;99459.13;;;23.10;48.66
18569;BME280;14780;48.316;-1.050;2023-07-13T06:44:24;99453.50;;;23.16;48.46
18569;BME280;14780;48.316;-1.050;2023-07-13T06:47:09;99456.97;;;23.12;49.03
18569;BME280;14780;48.316;-1.050;2023-07-13T06:49:54;99462.66;;;23.32;48.26
18569;BME280;14780;48.316;-1.050;2023-07-13T06:52:38;99456.69;;;23.35;48.34
18569;BME280;14780;48.316;-1.050;2023-07-13T06:55:23;99466.28;;;23.42;48.35
18569;BME280;14780;48.316;-1.050;2023-07-13T06:58:07;99465.94;;;23.33;48.45
18569;BME280;14780;48.316;-1.050;2023-07-13T07:00:53;99466.00;;;23.38;48.38
18569;BME280;14780;48.316;-1.050;2023-07-13T07:03:38;99475.50;;;23.36;48.32
18569;BME280;14780;48.316;-1.050;2023-07-13T07:06:23;99476.34;;;23.37;48.80
18569;BME280;14780;48.316;-1.050;2023-07-13T07:09:08;99479.47;;;23.50;48.32
18569;BME280;14780;48.316;-1.050;2023-07-13T07:11:53;99481.09;;;23.51;48.12
18569;BME280;14780;48.316;-1.050;2023-07-13T07:14:38;99479.78;;;23.53;48.36
18569;BME280;14780;48.316;-1.050;2023-07-13T07:17:23;99481.94;;;23.51;48.55
18569;BME280;14780;48.316;-1.050;2023-07-13T07:20:07;99485.16;;;23.43;48.81
18569;BME280;14780;48.316;-1.050;2023-07-13T07:22:53;99487.28;;;23.37;48.88
18569;BME280;14780;48.316;-1.050;2023-07-13T07:25:38;99487.78;;;23.33;48.62
18569;BME280;14780;48.316;-1.050;2023-07-13T07:28:26;99497.84;;;23.28;48.71
18569;BME280;14780;48.316;-1.050;2023-07-13T07:31:13;99502.94;;;23.20;48.80
18569;BME280;14780;48.316;-1.050;2023-07-13T07:33:57;99502.38;;;23.18;48.65
18569;BME280;14780;48.316;-1.050;2023-07-13T07:36:42;99508.19;;;23.26;48.76
18569;BME280;14780;48.316;-1.050;2023-07-13T07:39:27;99515.53;;;23.21;48.57
18569;BME280;14780;48.316;-1.050;2023-07-13T07:42:11;99511.06;;;23.15;48.70
18569;BME280;14780;48.316;-1.050;2023-07-13T07:44:57;99526.94;;;23.18;48.62
18569;BME280;14780;48.316;-1.050;2023-07-13T07:47:42;99529.00;;;23.11;49.06
18569;BME280;14780;48.316;-1.050;2023-07-13T07:50:27;99517.44;;;22.99;49.15
18569;BME280;14780;48.316;-1.050;2023-07-13T07:53:12;99530.56;;;23.02;49.49
18569;BME280;14780;48.316;-1.050;2023-07-13T07:55:57;99529.47;;;23.03;49.47
18569;BME280;14780;48.316;-1.050;2023-07-13T07:58:42;99530.09;;;23.10;49.20
18569;BME280;14780;48.316;-1.050;2023-07-13T08:01:26;99534.94;;;23.03;49.16
18569;BME280;14780;48.316;-1.050;2023-07-13T08:04:11;99533.84;;;23.04;49.28
18569;BME280;14780;48.316;-1.050;2023-07-13T08:06:56;99528.44;;;23.09;49.19
18569;BME280;14780;48.316;-1.050;2023-07-13T08:09:42;99525.09;;;23.02;49.58
18569;BME280;14780;48.316;-1.050;2023-07-13T08:12:26;99522.16;;;23.08;49.02
18569;BME280;14780;48.316;-1.050;2023-07-13T08:15:14;99519.41;;;23.03;49.09
18569;BME280;14780;48.316;-1.050;2023-07-13T08:17:59;99527.44;;;23.15;49.20
18569;BME280;14780;48.316;-1.050;2023-07-13T08:20:44;99535.69;;;23.20;48.87
18569;BME280;14780;48.316;-1.050;2023-07-13T08:23:29;99531.91;;;23.21;48.66
18569;BME280;14780;48.316;-1.050;2023-07-13T08:26:14;99532.88;;;23.15;49.09
18569;BME280;14780;48.316;-1.050;2023-07-13T08:28:58;99527.78;;;23.18;48.56
18569;BME280;14780;48.316;-1.050;2023-07-13T08:31:43;99528.34;;;23.20;48.95
18569;BME280;14780;48.316;-1.050;2023-07-13T08:34:29;99526.94;;;23.18;48.94
18569;BME280;14780;48.316;-1.050;2023-07-13T08:37:14;99529.72;;;23.23;48.68
18569;BME280;14780;48.316;-1.050;2023-07-13T08:39:59;99527.31;;;23.26;48.50
18569;BME280;14780;48.316;-1.050;2023-07-13T08:42:57;99524.81;;;23.25;48.80
18569;BME280;14780;48.316;-1.050;2023-07-13T08:46:11;99530.66;;;23.33;48.43
18569;BME280;14780;48.316;-1.050;2023-07-13T08:49:01;99522.53;;;23.38;48.21
18569;BME280;14780;48.316;-1.050;2023-07-13T08:55:19;99522.84;;;23.42;48.34
18569;BME280;14780;48.316;-1.050;2023-07-13T08:58:18;99525.59;;;23.46;48.43
18569;BME280;14780;48.316;-1.050;2023-07-13T09:01:20;99524.47;;;23.42;48.35
18569;BME280;14780;48.316;-1.050;2023-07-13T09:04:22;99517.94;;;23.43;48.14
18569;BME280;14780;48.316;-1.050;2023-07-13T09:10:00;99518.47;;;23.45;48.20
18569;BME280;14780;48.316;-1.050;2023-07-13T09:15:44;99512.00;;;23.51;48.26
18569;BME280;14780;48.316;-1.050;2023-07-13T09:18:37;99509.31;;;23.56;47.98
18569;BME280;14780;48.316;-1.050;2023-07-13T09:21:32;99513.09;;;23.55;48.41
18569;BME280;14780;48.316;-1.050;2023-07-13T09:24:31;99512.00;;;23.51;47.53
18569;BME280;14780;48.316;-1.050;2023-07-13T09:27:29;99523.94;;;23.45;47.97
18569;BME280;14780;48.316;-1.050;2023-07-13T09:33:00;99521.53;;;23.49;47.71
18569;BME280;14780;48.316;-1.050;2023-07-13T09:35:45;99520.19;;;23.51;47.70
18569;BME280;14780;48.316;-1.050;2023-07-13T09:38:30;99526.19;;;23.53;47.87
18569;BME280;14780;48.316;-1.050;2023-07-13T09:44:35;99518.00;;;23.53;47.63
18569;BME280;14780;48.316;-1.050;2023-07-13T09:47:26;99518.38;;;23.62;47.65
18569;BME280;14780;48.316;-1.050;2023-07-13T09:50:16;99516.50;;;23.67;47.27
18569;BME280;14780;48.316;-1.050;2023-07-13T09:53:02;99523.81;;;23.62;47.70
18569;BME280;14780;48.316;-1.050;2023-07-13T09:55:48;99524.69;;;23.67;47.18
18569;BME280;14780;48.316;-1.050;2023-07-13T09:58:35;99524.09;;;23.60;47.26
18569;BME280;14780;48.316;-1.050;2023-07-13T10:01:38;99524.34;;;23.59;47.31
18569;BME280;14780;48.316;-1.050;2023-07-13T10:04:32;99522.50;;;23.64;47.05
18569;BME280;14780;48.316;-1.050;2023-07-13T10:07:17;99525.47;;;23.63;47.28
18569;BME280;14780;48.316;-1.050;2023-07-13T10:10:03;99530.09;;;23.62;46.77
18569;BME280;14780;48.316;-1.050;2023-07-13T10:12:49;99527.34;;;23.57;46.86
18569;BME280;14780;48.316;-1.050;2023-07-13T10:15:35;99529.50;;;23.55;46.70
18569;BME280;14780;48.316;-1.050;2023-07-13T10:18:21;99523.78;;;23.57;46.69
18569;BME280;14780;48.316;-1.050;2023-07-13T10:21:13;99525.72;;;23.61;46.31
18569;BME280;14780;48.316;-1.050;2023-07-13T10:24:06;99515.16;;;23.70;46.45
18569;BME280;14780;48.316;-1.050;2023-07-13T10:33:02;99528.47;;;23.61;45.77
18569;BME280;14780;48.316;-1.050;2023-07-13T10:35:49;99527.38;;;23.62;46.10
18569;BME280;14780;48.316;-1.050;2023-07-13T10:38:37;99524.22;;;23.75;45.33
18569;BME280;14780;48.316;-1.050;2023-07-13T10:41:26;99520.38;;;23.76;45.96
18569;BME280;14780;48.316;-1.050;2023-07-13T10:44:29;99519.88;;;23.79;46.08
18569;BME280;14780;48.316;-1.050;2023-07-13T10:47:16;99524.25;;;23.80;46.10
18569;BME280;14780;48.316;-1.050;2023-07-13T10:50:03;99526.59;;;23.93;46.22
18569;BME280;14780;48.316;-1.050;2023-07-13T10:52:50;99524.41;;;23.95;46.21
18569;BME280;14780;48.316;-1.050;2023-07-13T10:55:40;99516.47;;;23.94;46.52
18569;BME280;14780;48.316;-1.050;2023-07-13T10:58:43;99524.34;;;23.90;46.13
18569;BME280;14780;48.316;-1.050;2023-07-13T11:01:50;99515.06;;;23.91;45.88
18569;BME280;14780;48.316;-1.050;2023-07-13T11:04:46;99513.47;;;23.95;45.46
18569;BME280;14780;48.316;-1.050;2023-07-13T11:07:52;99513.72;;;23.94;45.16
18569;BME280;14780;48.316;-1.050;2023-07-13T11:10:52;99511.28;;;23.97;44.87
18569;BME280;14780;48.316;-1.050;2023-07-13T11:16:36;99508.31;;;23.99;44.49
18569;BME280;14780;48.316;-1.050;2023-07-13T11:25:00;99503.19;;;24.07;44.03
18569;BME280;14780;48.316;-1.050;2023-07-13T11:28:02;99504.78;;;24.03;43.59
18569;BME280;14780;48.316;-1.050;2023-07-13T11:30:49;99503.72;;;24.09;44.04
18569;BME280;14780;48.316;-1.050;2023-07-13T11:36:31;99503.06;;;23.92;44.83
18569;BME280;14780;48.316;-1.050;2023-07-13T11:42:16;99504.41;;;23.90;43.88
18569;BME280;14780;48.316;-1.050;2023-07-13T11:45:01;99496.97;;;23.85;43.96
18569;BME280;14780;48.316;-1.050;2023-07-13T11:47:46;99507.22;;;24.00;43.83
18569;BME280;14780;48.316;-1.050;2023-07-13T11:50:30;99495.47;;;23.99;44.01
18569;BME280;14780;48.316;-1.050;2023-07-13T11:53:15;99491.34;;;24.02;43.96
18569;BME280;14780;48.316;-1.050;2023-07-13T11:56:00;99502.59;;;24.05;44.15
18569;BME280;14780;48.316;-1.050;2023-07-13T11:58:50;99494.22;;;24.17;43.94
18569;BME280;14780;48.316;-1.050;2023-07-13T12:01:38;99496.38;;;24.15;43.96
18569;BME280;14780;48.316;-1.050;2023-07-13T12:04:30;99492.84;;;24.14;43.49
18569;BME280;14780;48.316;-1.050;2023-07-13T12:07:18;99492.84;;;24.14;43.78
18569;BME280;14780;48.316;-1.050;2023-07-13T12:10:17;99497.22;;;24.15;43.51
18569;BME280;14780;48.316;-1.050;2023-07-13T12:13:05;99497.72;;;24.12;43.42
18569;BME280;14780;48.316;-1.050;2023-07-13T12:15:51;99496.66;;;24.18;43.22
18569;BME280;14780;48.316;-1.050;2023-07-13T12:18:36;99499.41;;;24.18;43.24
18569;BME280;14780;48.316;-1.050;2023-07-13T12:21:31;99490.69;;;24.21;43.59
18569;BME280;14780;48.316;-1.050;2023-07-13T12:24:18;99492.91;;;24.29;43.05
18569;BME280;14780;48.316;-1.050;2023-07-13T12:27:04;99493.38;;;24.16;43.02
18569;BME280;14780;48.316;-1.050;2023-07-13T12:30:01;99500.78;;;24.21;43.21
18569;BME280;14780;48.316;-1.050;2023-07-13T12:32:57;99491.75;;;24.15;42.82
18569;BME280;14780;48.316;-1.050;2023-07-13T12:35:51;99490.16;;;24.24;43.06
18569;BME280;14780;48.316;-1.050;2023-07-13T12:38:37;99485.81;;;24.28;43.27
18569;BME280;14780;48.316;-1.050;2023-07-13T12:41:22;99486.03;;;24.22;43.42
18569;BME280;14780;48.316;-1.050;2023-07-13T12:44:29;99480.88;;;24.30;42.72
18569;BME280;14780;48.316;-1.050;2023-07-13T12:47:15;99481.97;;;24.34;42.57
18569;BME280;14780;48.316;-1.050;2023-07-13T12:50:04;99482.53;;;24.31;42.97
18569;BME280;14780;48.316;-1.050;2023-07-13T12:52:52;99478.66;;;24.27;42.57
18569;BME280;14780;48.316;-1.050;2023-07-13T12:55:55;99481.69;;;24.31;42.57
18569;BME280;14780;48.316;-1.050;2023-07-13T12:58:43;99488.53;;;24.28;42.51
18569;BME280;14780;48.316;-1.050;2023-07-13T13:01:34;99476.53;;;24.39;42.10
18569;BME280;14780;48.316;-1.050;2023-07-13T13:04:22;99478.19;;;24.35;41.90
18569;BME280;14780;48.316;-1.050;2023-07-13T13:07:09;99479.28;;;24.39;41.75
18569;BME280;14780;48.316;-1.050;2023-07-13T13:09:54;99473.31;;;24.47;42.05
18569;BME280;14780;48.316;-1.050;2023-07-13T13:12:39;99487.25;;;24.46;41.86
18569;BME280;14780;48.316;-1.050;2023-07-13T13:15:26;99486.47;;;24.50;41.90
18569;BME280;14780;48.316;-1.050;2023-07-13T13:18:30;99479.34;;;24.49;41.39
18569;BME280;14780;48.316;-1.050;2023-07-13T13:21:16;99483.16;;;24.48;41.69
18569;BME280;14780;48.316;-1.050;2023-07-13T13:24:02;99478.78;;;24.47;41.20
18569;BME280;14780;48.316;-1.050;2023-07-13T13:26:47;99471.91;;;24.45;41.25
18569;BME280;14780;48.316;-1.050;2023-07-13T13:29:34;99478.50;;;24.49;41.47
18569;BME280;14780;48.316;-1.050;2023-07-13T13:32:20;99476.03;;;24.47;41.45
18569;BME280;14780;48.316;-1.050;2023-07-13T13:35:12;99471.44;;;24.53;41.41
18569;BME280;14780;48.316;-1.050;2023-07-13T13:37:57;99476.63;;;24.49;41.39
18569;BME280;14780;48.316;-1.050;2023-07-13T13:40:43;99474.44;;;24.51;41.24
18569;BME280;14780;48.316;-1.050;2023-07-13T13:43:28;99479.34;;;24.54;41.27
18569;BME280;14780;48.316;-1.050;2023-07-13T13:46:22;99474.44;;;24.51;41.53
18569;BME280;14780;48.316;-1.050;2023-07-13T13:49:18;99474.44;;;24.51;42.07
18569;BME280;14780;48.316;-1.050;2023-07-13T13:52:04;99474.47;;;24.56;41.39
18569;BME280;14780;48.316;-1.050;2023-07-13T13:54:49;99473.38;;;24.57;41.55
18569;BME280;14780;48.316;-1.050;2023-07-13T13:57:34;99480.75;;;24.57;41.17
18569;BME280;14780;48.316;-1.050;2023-07-13T14:00:21;99470.06;;;24.55;40.99
18569;BME280;14780;48.316;-1.050;2023-07-13T14:03:08;99475.03;;;24.63;41.08
18569;BME280;14780;48.316;-1.050;2023-07-13T14:05:58;99468.50;;;24.69;41.19
18569;BME280;14780;48.316;-1.050;2023-07-13T14:08:43;99469.03;;;24.66;40.78
18569;BME280;14780;48.316;-1.050;2023-07-13T14:11:28;99471.22;;;24.69;40.74
18569;BME280;14780;48.316;-1.050;2023-07-13T14:14:23;99480.31;;;24.75;40.98
18569;BME280;14780;48.316;-1.050;2023-07-13T14:17:27;99472.34;;;24.73;40.94
18569;BME280;14780;48.316;-1.050;2023-07-13T14:20:13;99482.19;;;24.64;42.49
18569;BME280;14780;48.316;-1.050;2023-07-13T14:22:57;99474.25;;;24.68;41.86
18569;BME280;14780;48.316;-1.050;2023-07-13T14:25:42;99471.19;;;24.59;42.35
18569;BME280;14780;48.316;-1.050;2023-07-13T14:28:27;99473.13;;;24.64;41.63
18569;BME280;14780;48.316;-1.050;2023-07-13T14:31:15;99473.69;;;24.61;41.68
18569;BME280;14780;48.316;-1.050;2023-07-13T14:33:59;99470.41;;;24.64;41.00
18569;BME280;14780;48.316;-1.050;2023-07-13T14:36:48;99465.47;;;24.66;41.44
18569;BME280;14780;48.316;-1.050;2023-07-13T14:39:34;99464.63;;;24.60;41.37
18569;BME280;14780;48.316;-1.050;2023-07-13T14:42:18;99470.13;;;24.65;41.40
18569;BME280;14780;48.316;-1.050;2023-07-13T14:45:03;99458.13;;;24.71;41.34
18569;BME280;14780;48.316;-1.050;2023-07-13T14:47:48;99465.78;;;24.74;40.79
18569;BME280;14780;48.316;-1.050;2023-07-13T14:50:33;99460.84;;;24.66;41.24
18569;BME280;14780;48.316;-1.050;2023-07-13T14:53:20;99463.03;;;24.69;41.35
18569;BME280;14780;48.316;-1.050;2023-07-13T14:56:12;99463.03;;;24.74;41.37
18569;BME280;14780;48.316;-1.050;2023-07-13T14:58:57;99456.72;;;24.74;41.13
18569;BME280;14780;48.316;-1.050;2023-07-13T15:01:42;99455.66;;;24.75;41.26
18569;BME280;14780;48.316;-1.050;2023-07-13T15:04:27;99456.47;;;24.75;41.72
18569;BME280;14780;48.316;-1.050;2023-07-13T15:07:13;99439.78;;;24.77;41.43
18569;BME280;14780;48.316;-1.050;2023-07-13T15:10:00;99441.16;;;24.74;41.36